sensor_id;sensor_type;location;lat;lon;timestamp;temperature;humidity
8888;DHT22;4480;52.370;9.748;2023-11-22T00:02:08;2.30;99.90
8888;DHT22;4480;52.370;9.748;2023-11-22T00:04:35;2.20;99.90
8888;DHT22;4480;52.370;9.748;2023-11-22T00:07:02;2.20;99.90
8888;DHT22;4480;52.370;9.748;2023-11-22T00:09:29;2.20;99.90
8888;DHT22;4480;52.370;9.748;2023-11-22T00:11:55;2.20;99.90
8888;DHT22;4480;52.370;9.748;2023-11-22T00:14:23;2.20;99.90
8888;DHT22;4480;52.370;9.748;2023-11-22T00:16:50;2.20;99.90
8888;DHT22;4480;52.370;9.748;2023-11-22T00:19:17;2.10;99.90
8888;DHT22;4480;52.370;9.748;2023-11-22T00:21:47;2.10;99.90
8888;DHT22;4480;52.370;9.748;2023-11-22T00:24:14;2.10;99.90
8888;DHT22;4480;52.370;9.748;2023-11-22T00:26:41;2.10;99.90
8888;DHT22;4480;52.370;9.748;2023-11-22T00:29:08;2.00;99.90
8888;DHT22;4480;52.370;9.748;2023-11-22T00:31:36;2.00;99.90
8888;DHT22;4480;52.370;9.748;2023-11-22T00:34:03;1.90;99.90
8888;DHT22;4480;52.370;9.748;2023-11-22T00:36:29;1.90;99.90
8888;DHT22;4480;52.370;9.748;2023-11-22T00:38:56;1.90;99.90
8888;DHT22;4480;52.370;9.748;2023-11-22T00:41:23;1.80;99.90
8888;DHT22;4480;52.370;9.748;2023-11-22T00:43:49;1.80;99.90
8888;DHT22;4480;52.370;9.748;2023-11-22T00:46:16;1.80;99.90
8888;DHT22;4480;52.370;9.748;2023-11-22T00:48:44;1.70;99.90
8888;DHT22;4480;52.370;9.748;2023-11-22T00:51:11;1.70;99.90
8888;DHT22;4480;52.370;9.748;2023-11-22T00:53:38;1.70;99.90
8888;DHT22;4480;52.370;9.748;2023-11-22T00:56:05;1.70;99.90
8888;DHT22;4480;52.370;9.748;2023-11-22T00:58:32;1.70;99.90
8888;DHT22;4480;52.370;9.748;2023-11-22T01:00:59;1.70;99.90
8888;DHT22;4480;52.370;9.748;2023-11-22T01:03:26;1.70;99.90
8888;DHT22;4480;52.370;9.748;2023-11-22T01:05:54;1.60;99.90
8888;DHT22;4480;52.370;9.748;2023-11-22T01:08:21;1.60;99.90
8888;DHT22;4480;52.370;9.748;2023-11-22T01:10:47;1.60;99.90
8888;DHT22;4480;52.370;9.748;2023-11-22T01:13:14;1.60;99.90
8888;DHT22;4480;52.370;9.748;2023-11-22T01:15:41;1.60;99.90
8888;DHT22;4480;52.370;9.748;2023-11-22T01:18:10;1.50;99.90
8888;DHT22;4480;52.370;9.748;2023-11-22T01:20:36;1.50;99.90
8888;DHT22;4480;52.370;9.748;2023-11-22T01:23:04;1.50;99.90
8888;DHT22;4480;52.370;9.748;2023-11-22T01:25:31;1.50;99.90
8888;DHT22;4480;52.370;9.748;2023-11-22T01:27:58;1.50;99.90
8888;DHT22;4480;52.370;9.748;2023-11-22T01:30:26;1.40;99.90
8888;DHT22;4480;52.370;9.748;2023-11-22T01:32:53;1.40;99.90
8888;DHT22;4480;52.370;9.748;2023-11-22T01:35:21;1.40;99.90
8888;DHT22;4480;52.370;9.748;2023-11-22T01:37:48;1.40;99.90
8888;DHT22;4480;52.370;9.748;2023-11-22T01:40:18;1.40;99.90
8888;DHT22;4480;52.370;9.748;2023-11-22T01:42:45;1.30;99.90
8888;DHT22;4480;52.370;9.748;2023-11-22T01:45:12;1.30;99.90
8888;DHT22;4480;52.370;9.748;2023-11-22T01:47:39;1.30;99.90
8888;DHT22;4480;52.370;9.748;2023-11-22T01:50:07;1.30;99.90
8888;DHT22;4480;52.370;9.748;2023-11-22T01:52:34;1.30;99.90
8888;DHT22;4480;52.370;9.748;2023-11-22T01:55:02;1.30;99.90
8888;DHT22;4480;52.370;9.748;2023-11-22T01:57:31;1.30;99.90
8888;DHT22;4480;52.370;9.748;2023-11-22T02:00:00;1.20;99.90
8888;DHT22;4480;52.370;9.748;2023-11-22T02:02:26;1.20;99.90
8888;DHT22;4480;52.370;9.748;2023-11-22T02:04:53;1.20;99.90
8888;DHT22;4480;52.370;9.748;2023-11-22T02:07:20;1.10;99.90
8888;DHT22;4480;52.370;9.748;2023-11-22T02:09:47;1.10;99.90
8888;DHT22;4480;52.370;9.748;2023-11-22T02:12:14;1.10;99.90
8888;DHT22;4480;52.370;9.748;2023-11-22T02:14:42;1.00;99.90
8888;DHT22;4480;52.370;9.748;2023-11-22T02:17:09;1.00;99.90
8888;DHT22;4480;52.370;9.748;2023-11-22T02:19:36;1.00;99.90
8888;DHT22;4480;52.370;9.748;2023-11-22T02:22:03;0.90;99.90
8888;DHT22;4480;52.370;9.748;2023-11-22T02:24:31;0.90;99.90
8888;DHT22;4480;52.370;9.748;2023-11-22T02:26:59;0.90;99.90
8888;DHT22;4480;52.370;9.748;2023-11-22T02:29:26;0.80;99.90
8888;DHT22;4480;52.370;9.748;2023-11-22T02:31:54;0.80;99.90
8888;DHT22;4480;52.370;9.748;2023-11-22T02:34:20;0.80;99.90
8888;DHT22;4480;52.370;9.748;2023-11-22T02:36:47;0.80;99.90
8888;DHT22;4480;52.370;9.748;2023-11-22T02:39:14;0.80;99.90
8888;DHT22;4480;52.370;9.748;2023-11-22T02:41:43;0.70;99.90
8888;DHT22;4480;52.370;9.748;2023-11-22T02:44:10;0.70;99.90
8888;DHT22;4480;52.370;9.748;2023-11-22T02:46:39;0.70;99.90
8888;DHT22;4480;52.370;9.748;2023-11-22T02:49:06;0.70;99.90
8888;DHT22;4480;52.370;9.748;2023-11-22T02:51:34;0.70;99.90
8888;DHT22;4480;52.370;9.748;2023-11-22T02:54:01;0.70;99.90
8888;DHT22;4480;52.370;9.748;2023-11-22T02:56:30;0.70;99.90
8888;DHT22;4480;52.370;9.748;2023-11-22T02:58:58;0.70;99.90
8888;DHT22;4480;52.370;9.748;2023-11-22T03:01:24;0.70;99.90
8888;DHT22;4480;52.370;9.748;2023-11-22T03:03:51;0.70;99.90
8888;DHT22;4480;52.370;9.748;2023-11-22T03:06:18;0.70;99.90
8888;DHT22;4480;52.370;9.748;2023-11-22T03:08:45;0.70;99.90
8888;DHT22;4480;52.370;9.748;2023-11-22T03:11:12;0.80;99.90
8888;DHT22;4480;52.370;9.748;2023-11-22T03:13:38;0.80;99.90
8888;DHT22;4480;52.370;9.748;2023-11-22T03:16:06;0.90;99.90
8888;DHT22;4480;52.370;9.748;2023-11-22T03:18:34;0.90;99.90
8888;DHT22;4480;52.370;9.748;2023-11-22T03:21:01;1.00;99.90
8888;DHT22;4480;52.370;9.748;2023-11-22T03:23:28;1.00;99.90
8888;DHT22;4480;52.370;9.748;2023-11-22T03:25:54;1.10;99.90
8888;DHT22;4480;52.370;9.748;2023-11-22T03:28:21;1.10;99.90
8888;DHT22;4480;52.370;9.748;2023-11-22T03:30:48;1.10;99.90
8888;DHT22;4480;52.370;9.748;2023-11-22T03:33:15;1.10;99.90
8888;DHT22;4480;52.370;9.748;2023-11-22T03:35:42;1.00;99.90
8888;DHT22;4480;52.370;9.748;2023-11-22T03:38:09;1.00;99.90
8888;DHT22;4480;52.370;9.748;2023-11-22T03:40:35;0.90;99.90
8888;DHT22;4480;52.370;9.748;2023-11-22T03:43:02;0.90;99.90
8888;DHT22;4480;52.370;9.748;2023-11-22T03:45:29;0.80;99.90
8888;DHT22;4480;52.370;9.748;2023-11-22T03:47:55;0.90;99.90
8888;DHT22;4480;52.370;9.748;2023-11-22T03:50:23;0.80;99.90
8888;DHT22;4480;52.370;9.748;2023-11-22T03:52:50;0.90;99.90
8888;DHT22;4480;52.370;9.748;2023-11-22T03:55:17;0.90;99.90
8888;DHT22;4480;52.370;9.748;2023-11-22T03:57:43;0.90;99.90
8888;DHT22;4480;52.370;9.748;2023-11-22T04:00:11;1.00;99.90
8888;DHT22;4480;52.370;9.748;2023-11-22T04:02:39;1.00;99.90
8888;DHT22;4480;52.370;9.748;2023-11-22T04:05:07;1.00;99.90
8888;DHT22;4480;52.370;9.748;2023-11-22T04:07:36;1.00;99.90
8888;DHT22;4480;52.370;9.748;2023-11-22T04:12:32;0.90;99.90
8888;DHT22;4480;52.370;9.748;2023-11-22T04:14:59;0.90;99.90
8888;DHT22;4480;52.370;9.748;2023-11-22T04:17:26;0.90;99.90
8888;DHT22;4480;52.370;9.748;2023-11-22T04:19:52;0.90;99.90
8888;DHT22;4480;52.370;9.748;2023-11-22T04:22:19;0.90;99.90
8888;DHT22;4480;52.370;9.748;2023-11-22T04:24:46;0.80;99.90
8888;DHT22;4480;52.370;9.748;2023-11-22T04:27:12;0.80;99.90
8888;DHT22;4480;52.370;9.748;2023-11-22T04:29:41;0.80;99.90
8888;DHT22;4480;52.370;9.748;2023-11-22T04:32:08;0.80;99.90
8888;DHT22;4480;52.370;9.748;2023-11-22T04:34:35;0.70;99.90
8888;DHT22;4480;52.370;9.748;2023-11-22T04:37:02;0.70;99.90
8888;DHT22;4480;52.370;9.748;2023-11-22T04:39:29;0.70;99.90
8888;DHT22;4480;52.370;9.748;2023-11-22T04:41:55;0.60;99.90
8888;DHT22;4480;52.370;9.748;2023-11-22T04:44:22;0.60;99.90
8888;DHT22;4480;52.370;9.748;2023-11-22T04:46:50;0.60;99.90
8888;DHT22;4480;52.370;9.748;2023-11-22T04:49:17;0.60;99.90
8888;DHT22;4480;52.370;9.748;2023-11-22T04:51:44;0.60;99.90
8888;DHT22;4480;52.370;9.748;2023-11-22T04:54:11;0.50;99.90
8888;DHT22;4480;52.370;9.748;2023-11-22T04:56:38;0.50;99.90
8888;DHT22;4480;52.370;9.748;2023-11-22T04:59:04;0.50;99.90
8888;DHT22;4480;52.370;9.748;2023-11-22T05:01:31;0.50;99.90
8888;DHT22;4480;52.370;9.748;2023-11-22T05:04:00;0.50;99.90
8888;DHT22;4480;52.370;9.748;2023-11-22T05:06:26;0.50;99.90
8888;DHT22;4480;52.370;9.748;2023-11-22T05:08:54;0.50;99.90
8888;DHT22;4480;52.370;9.748;2023-11-22T05:11:21;0.50;99.90
8888;DHT22;4480;52.370;9.748;2023-11-22T05:13:48;0.40;99.90
8888;DHT22;4480;52.370;9.748;2023-11-22T05:16:15;0.40;99.90
8888;DHT22;4480;52.370;9.748;2023-11-22T05:18:42;0.40;99.90
8888;DHT22;4480;52.370;9.748;2023-11-22T05:21:10;0.40;99.90
8888;DHT22;4480;52.370;9.748;2023-11-22T05:23:37;0.30;99.90
8888;DHT22;4480;52.370;9.748;2023-11-22T05:26:04;0.30;99.90
8888;DHT22;4480;52.370;9.748;2023-11-22T05:28:31;0.30;99.90
8888;DHT22;4480;52.370;9.748;2023-11-22T05:30:59;0.30;99.90
8888;DHT22;4480;52.370;9.748;2023-11-22T05:33:25;0.30;99.90
8888;DHT22;4480;52.370;9.748;2023-11-22T05:35:52;0.20;99.90
8888;DHT22;4480;52.370;9.748;2023-11-22T05:38:20;0.20;99.90
8888;DHT22;4480;52.370;9.748;2023-11-22T05:40:47;0.20;99.90
8888;DHT22;4480;52.370;9.748;2023-11-22T05:43:14;0.20;99.90
8888;DHT22;4480;52.370;9.748;2023-11-22T05:45:40;0.20;99.90
8888;DHT22;4480;52.370;9.748;2023-11-22T05:48:07;0.10;99.90
8888;DHT22;4480;52.370;9.748;2023-11-22T05:50:34;0.20;99.90
8888;DHT22;4480;52.370;9.748;2023-11-22T05:53:01;0.10;99.90
8888;DHT22;4480;52.370;9.748;2023-11-22T05:55:29;0.10;99.90
8888;DHT22;4480;52.370;9.748;2023-11-22T05:57:56;0.20;99.90
8888;DHT22;4480;52.370;9.748;2023-11-22T06:00:23;0.10;99.90
8888;DHT22;4480;52.370;9.748;2023-11-22T06:02:50;0.10;99.90
8888;DHT22;4480;52.370;9.748;2023-11-22T06:05:17;0.10;99.90
8888;DHT22;4480;52.370;9.748;2023-11-22T06:07:44;0.10;99.90
8888;DHT22;4480;52.370;9.748;2023-11-22T06:10:10;0.10;99.90
8888;DHT22;4480;52.370;9.748;2023-11-22T06:12:40;0.10;99.90
8888;DHT22;4480;52.370;9.748;2023-11-22T06:15:08;0.20;99.90
8888;DHT22;4480;52.370;9.748;2023-11-22T06:17:35;0.20;99.90
8888;DHT22;4480;52.370;9.748;2023-11-22T06:20:02;0.10;99.90
8888;DHT22;4480;52.370;9.748;2023-11-22T06:22:28;0.10;99.90
8888;DHT22;4480;52.370;9.748;2023-11-22T06:24:56;0.10;99.90
8888;DHT22;4480;52.370;9.748;2023-11-22T06:27:23;0.10;99.90
8888;DHT22;4480;52.370;9.748;2023-11-22T06:29:51;0.10;99.90
8888;DHT22;4480;52.370;9.748;2023-11-22T06:32:17;0.10;99.90
8888;DHT22;4480;52.370;9.748;2023-11-22T06:34:44;0.10;99.90
8888;DHT22;4480;52.370;9.748;2023-11-22T06:37:11;0.00;99.90
8888;DHT22;4480;52.370;9.748;2023-11-22T06:39:38;0.10;99.90
8888;DHT22;4480;52.370;9.748;2023-11-22T06:42:05;0.10;99.90
8888;DHT22;4480;52.370;9.748;2023-11-22T06:44:32;0.10;99.90
8888;DHT22;4480;52.370;9.748;2023-11-22T06:47:01;0.10;99.90
8888;DHT22;4480;52.370;9.748;2023-11-22T06:49:27;0.10;99.90
8888;DHT22;4480;52.370;9.748;2023-11-22T06:51:54;0.10;99.90
8888;DHT22;4480;52.370;9.748;2023-11-22T06:54:21;0.10;99.90
8888;DHT22;4480;52.370;9.748;2023-11-22T06:56:48;0.10;99.90
8888;DHT22;4480;52.370;9.748;2023-11-22T06:59:15;0.10;99.90
8888;DHT22;4480;52.370;9.748;2023-11-22T07:01:42;0.10;99.90
8888;DHT22;4480;52.370;9.748;2023-11-22T07:04:10;0.10;99.90
8888;DHT22;4480;52.370;9.748;2023-11-22T07:06:37;0.10;99.90
8888;DHT22;4480;52.370;9.748;2023-11-22T07:09:05;0.10;99.90
8888;DHT22;4480;52.370;9.748;2023-11-22T07:11:35;0.20;99.90
8888;DHT22;4480;52.370;9.748;2023-11-22T07:14:03;0.20;99.90
8888;DHT22;4480;52.370;9.748;2023-11-22T07:16:30;0.30;99.90
8888;DHT22;4480;52.370;9.748;2023-11-22T07:18:57;0.30;99.90
8888;DHT22;4480;52.370;9.748;2023-11-22T07:21:25;0.30;99.90
8888;DHT22;4480;52.370;9.748;2023-11-22T07:23:52;0.30;99.90
8888;DHT22;4480;52.370;9.748;2023-11-22T07:26:19;0.40;99.90
8888;DHT22;4480;52.370;9.748;2023-11-22T07:28:46;0.40;99.90
8888;DHT22;4480;52.370;9.748;2023-11-22T07:31:12;0.50;99.90
8888;DHT22;4480;52.370;9.748;2023-11-22T07:33:39;0.50;99.90
8888;DHT22;4480;52.370;9.748;2023-11-22T07:36:07;0.60;99.90
8888;DHT22;4480;52.370;9.748;2023-11-22T07:38:36;0.70;99.90
8888;DHT22;4480;52.370;9.748;2023-11-22T07:41:03;0.70;99.90
8888;DHT22;4480;52.370;9.748;2023-11-22T07:43:29;0.80;99.90
8888;DHT22;4480;52.370;9.748;2023-11-22T07:45:56;0.90;99.90
8888;DHT22;4480;52.370;9.748;2023-11-22T07:48:25;0.90;99.90
8888;DHT22;4480;52.370;9.748;2023-11-22T07:50:52;1.00;99.90
8888;DHT22;4480;52.370;9.748;2023-11-22T07:53:20;1.10;99.90
8888;DHT22;4480;52.370;9.748;2023-11-22T07:55:48;1.10;99.90
8888;DHT22;4480;52.370;9.748;2023-11-22T07:58:14;1.20;99.90
8888;DHT22;4480;52.370;9.748;2023-11-22T08:00:41;1.30;99.90
8888;DHT22;4480;52.370;9.748;2023-11-22T08:03:08;1.40;99.90
8888;DHT22;4480;52.370;9.748;2023-11-22T08:05:35;1.40;99.90
8888;DHT22;4480;52.370;9.748;2023-11-22T08:08:05;1.40;99.90
8888;DHT22;4480;52.370;9.748;2023-11-22T08:10:33;1.50;99.90
8888;DHT22;4480;52.370;9.748;2023-11-22T08:13:02;1.50;99.90
8888;DHT22;4480;52.370;9.748;2023-11-22T08:15:29;1.50;99.90
8888;DHT22;4480;52.370;9.748;2023-11-22T08:17:57;1.50;99.90
8888;DHT22;4480;52.370;9.748;2023-11-22T08:20:24;1.50;99.90
8888;DHT22;4480;52.370;9.748;2023-11-22T08:22:51;1.50;99.90
8888;DHT22;4480;52.370;9.748;2023-11-22T08:25:18;1.50;99.90
8888;DHT22;4480;52.370;9.748;2023-11-22T08:27:44;1.50;99.90
8888;DHT22;4480;52.370;9.748;2023-11-22T08:30:13;1.50;99.90
8888;DHT22;4480;52.370;9.748;2023-11-22T08:32:41;1.50;99.90
8888;DHT22;4480;52.370;9.748;2023-11-22T08:35:09;1.60;99.90
8888;DHT22;4480;52.370;9.748;2023-11-22T08:37:36;1.70;99.90
8888;DHT22;4480;52.370;9.748;2023-11-22T08:40:06;1.80;99.90
8888;DHT22;4480;52.370;9.748;2023-11-22T08:42:33;1.90;99.90
8888;DHT22;4480;52.370;9.748;2023-11-22T08:45:01;2.00;99.90
8888;DHT22;4480;52.370;9.748;2023-11-22T08:47:29;2.10;99.90
8888;DHT22;4480;52.370;9.748;2023-11-22T08:49:56;2.20;99.90
8888;DHT22;4480;52.370;9.748;2023-11-22T08:52:24;2.20;99.90
8888;DHT22;4480;52.370;9.748;2023-11-22T08:54:51;2.40;99.90
8888;DHT22;4480;52.370;9.748;2023-11-22T08:57:18;2.40;99.90
8888;DHT22;4480;52.370;9.748;2023-11-22T08:59:45;2.50;99.90
8888;DHT22;4480;52.370;9.748;2023-11-22T09:02:13;2.50;99.90
8888;DHT22;4480;52.370;9.748;2023-11-22T09:04:41;2.50;99.90
8888;DHT22;4480;52.370;9.748;2023-11-22T09:07:08;2.50;99.90
8888;DHT22;4480;52.370;9.748;2023-11-22T09:09:36;2.50;99.90
8888;DHT22;4480;52.370;9.748;2023-11-22T09:12:04;2.50;99.90
8888;DHT22;4480;52.370;9.748;2023-11-22T09:14:38;2.60;99.90
8888;DHT22;4480;52.370;9.748;2023-11-22T09:17:05;2.60;99.90
8888;DHT22;4480;52.370;9.748;2023-11-22T09:19:32;2.60;99.90
8888;DHT22;4480;52.370;9.748;2023-11-22T09:22:00;2.70;99.90
8888;DHT22;4480;52.370;9.748;2023-11-22T09:24:27;2.70;99.90
8888;DHT22;4480;52.370;9.748;2023-11-22T09:26:54;2.80;99.90
8888;DHT22;4480;52.370;9.748;2023-11-22T09:29:21;2.80;99.90
8888;DHT22;4480;52.370;9.748;2023-11-22T09:31:49;2.80;99.90
8888;DHT22;4480;52.370;9.748;2023-11-22T09:34:17;2.90;99.90
8888;DHT22;4480;52.370;9.748;2023-11-22T09:36:45;3.00;99.90
8888;DHT22;4480;52.370;9.748;2023-11-22T09:39:13;3.00;99.90
8888;DHT22;4480;52.370;9.748;2023-11-22T09:41:40;3.10;99.90
8888;DHT22;4480;52.370;9.748;2023-11-22T09:44:07;3.10;99.90
8888;DHT22;4480;52.370;9.748;2023-11-22T09:46:36;3.20;99.90
8888;DHT22;4480;52.370;9.748;2023-11-22T09:49:08;3.20;99.90
8888;DHT22;4480;52.370;9.748;2023-11-22T09:51:36;3.30;99.90
8888;DHT22;4480;52.370;9.748;2023-11-22T09:54:04;3.30;99.90
8888;DHT22;4480;52.370;9.748;2023-11-22T09:56:36;3.30;99.90
8888;DHT22;4480;52.370;9.748;2023-11-22T09:59:03;3.40;99.90
8888;DHT22;4480;52.370;9.748;2023-11-22T10:01:31;3.40;99.90
8888;DHT22;4480;52.370;9.748;2023-11-22T10:03:59;3.50;99.90
8888;DHT22;4480;52.370;9.748;2023-11-22T10:06:26;3.50;99.90
8888;DHT22;4480;52.370;9.748;2023-11-22T10:08:56;3.50;99.90
8888;DHT22;4480;52.370;9.748;2023-11-22T10:11:23;3.60;99.90
8888;DHT22;4480;52.370;9.748;2023-11-22T10:13:51;3.60;99.90
8888;DHT22;4480;52.370;9.748;2023-11-22T10:16:18;3.70;99.90
8888;DHT22;4480;52.370;9.748;2023-11-22T10:18:47;3.70;99.90
8888;DHT22;4480;52.370;9.748;2023-11-22T10:21:21;3.70;99.90
8888;DHT22;4480;52.370;9.748;2023-11-22T10:23:49;3.70;99.90
8888;DHT22;4480;52.370;9.748;2023-11-22T10:26:18;3.70;99.90
8888;DHT22;4480;52.370;9.748;2023-11-22T10:28:45;3.60;99.90
8888;DHT22;4480;52.370;9.748;2023-11-22T10:31:13;3.60;99.90
8888;DHT22;4480;52.370;9.748;2023-11-22T10:33:41;3.60;99.90
8888;DHT22;4480;52.370;9.748;2023-11-22T10:36:09;3.60;99.90
8888;DHT22;4480;52.370;9.748;2023-11-22T10:38:37;3.70;99.90
8888;DHT22;4480;52.370;9.748;2023-11-22T10:41:05;3.80;99.90
8888;DHT22;4480;52.370;9.748;2023-11-22T10:43:34;3.90;99.90
8888;DHT22;4480;52.370;9.748;2023-11-22T10:46:03;3.80;99.90
8888;DHT22;4480;52.370;9.748;2023-11-22T10:48:32;3.80;99.90
8888;DHT22;4480;52.370;9.748;2023-11-22T10:51:00;3.70;99.90
8888;DHT22;4480;52.370;9.748;2023-11-22T10:53:32;3.70;99.90
8888;DHT22;4480;52.370;9.748;2023-11-22T10:56:04;3.70;99.90
8888;DHT22;4480;52.370;9.748;2023-11-22T10:58:32;3.60;99.90
8888;DHT22;4480;52.370;9.748;2023-11-22T11:01:02;3.60;99.90
8888;DHT22;4480;52.370;9.748;2023-11-22T11:03:37;3.60;99.90
8888;DHT22;4480;52.370;9.748;2023-11-22T11:06:10;3.60;99.90
8888;DHT22;4480;52.370;9.748;2023-11-22T11:08:39;3.50;99.90
8888;DHT22;4480;52.370;9.748;2023-11-22T11:11:07;3.60;99.90
8888;DHT22;4480;52.370;9.748;2023-11-22T11:13:34;3.60;99.90
8888;DHT22;4480;52.370;9.748;2023-11-22T11:16:01;3.60;99.90
8888;DHT22;4480;52.370;9.748;2023-11-22T11:18:28;3.70;99.90
8888;DHT22;4480;52.370;9.748;2023-11-22T11:20:57;3.80;99.90
8888;DHT22;4480;52.370;9.748;2023-11-22T11:23:25;3.90;99.90
8888;DHT22;4480;52.370;9.748;2023-11-22T11:25:53;4.10;99.90
8888;DHT22;4480;52.370;9.748;2023-11-22T11:28:20;4.20;99.90
8888;DHT22;4480;52.370;9.748;2023-11-22T11:30:48;4.40;99.90
8888;DHT22;4480;52.370;9.748;2023-11-22T11:33:18;4.50;99.90
8888;DHT22;4480;52.370;9.748;2023-11-22T11:35:47;4.50;99.90
8888;DHT22;4480;52.370;9.748;2023-11-22T11:38:17;4.50;99.90
8888;DHT22;4480;52.370;9.748;2023-11-22T11:40:47;4.60;99.90
8888;DHT22;4480;52.370;9.748;2023-11-22T11:43:13;4.60;99.90
8888;DHT22;4480;52.370;9.748;2023-11-22T11:45:42;4.60;99.90
8888;DHT22;4480;52.370;9.748;2023-11-22T11:48:12;4.70;99.90
8888;DHT22;4480;52.370;9.748;2023-11-22T11:50:40;4.70;99.90
8888;DHT22;4480;52.370;9.748;2023-11-22T11:53:07;4.70;99.90
8888;DHT22;4480;52.370;9.748;2023-11-22T11:55:35;4.60;99.90
8888;DHT22;4480;52.370;9.748;2023-11-22T11:58:04;4.60;99.70
8888;DHT22;4480;52.370;9.748;2023-11-22T12:00:33;4.60;99.50
8888;DHT22;4480;52.370;9.748;2023-11-22T12:03:00;4.80;99.10
8888;DHT22;4480;52.370;9.748;2023-11-22T12:05:27;4.80;98.20
8888;DHT22;4480;52.370;9.748;2023-11-22T12:07:54;4.80;97.60
8888;DHT22;4480;52.370;9.748;2023-11-22T12:10:21;4.80;97.30
8888;DHT22;4480;52.370;9.748;2023-11-22T12:12:51;4.90;96.90
8888;DHT22;4480;52.370;9.748;2023-11-22T12:15:18;5.00;96.40
8888;DHT22;4480;52.370;9.748;2023-11-22T12:17:45;5.00;96.10
8888;DHT22;4480;52.370;9.748;2023-11-22T12:20:15;5.00;95.50
8888;DHT22;4480;52.370;9.748;2023-11-22T12:22:43;5.00;95.20
8888;DHT22;4480;52.370;9.748;2023-11-22T12:25:10;5.00;94.60
8888;DHT22;4480;52.370;9.748;2023-11-22T12:27:42;5.00;94.20
8888;DHT22;4480;52.370;9.748;2023-11-22T12:30:28;5.00;94.10
8888;DHT22;4480;52.370;9.748;2023-11-22T12:32:55;5.00;93.70
8888;DHT22;4480;52.370;9.748;2023-11-22T12:35:22;5.00;93.50
8888;DHT22;4480;52.370;9.748;2023-11-22T12:37:49;5.00;92.90
8888;DHT22;4480;52.370;9.748;2023-11-22T12:40:17;4.90;92.80
8888;DHT22;4480;52.370;9.748;2023-11-22T12:42:49;4.90;92.80
8888;DHT22;4480;52.370;9.748;2023-11-22T12:45:20;4.80;92.50
8888;DHT22;4480;52.370;9.748;2023-11-22T12:47:49;4.80;92.40
8888;DHT22;4480;52.370;9.748;2023-11-22T12:50:32;4.80;92.30
8888;DHT22;4480;52.370;9.748;2023-11-22T12:53:08;4.80;92.30
8888;DHT22;4480;52.370;9.748;2023-11-22T12:55:36;4.80;92.20
8888;DHT22;4480;52.370;9.748;2023-11-22T12:58:03;4.80;92.00
8888;DHT22;4480;52.370;9.748;2023-11-22T13:00:31;4.90;92.00
8888;DHT22;4480;52.370;9.748;2023-11-22T13:02:58;4.90;92.30
8888;DHT22;4480;52.370;9.748;2023-11-22T13:05:25;4.80;91.40
8888;DHT22;4480;52.370;9.748;2023-11-22T13:07:52;4.60;91.60
8888;DHT22;4480;52.370;9.748;2023-11-22T13:10:19;4.60;92.00
8888;DHT22;4480;52.370;9.748;2023-11-22T13:12:51;4.60;92.30
8888;DHT22;4480;52.370;9.748;2023-11-22T13:15:19;4.60;92.50
8888;DHT22;4480;52.370;9.748;2023-11-22T13:17:50;4.60;92.50
8888;DHT22;4480;52.370;9.748;2023-11-22T13:20:21;4.60;92.50
8888;DHT22;4480;52.370;9.748;2023-11-22T13:22:48;4.60;92.40
8888;DHT22;4480;52.370;9.748;2023-11-22T13:25:15;4.60;92.30
8888;DHT22;4480;52.370;9.748;2023-11-22T13:27:44;4.50;92.00
8888;DHT22;4480;52.370;9.748;2023-11-22T13:30:11;4.40;91.70
8888;DHT22;4480;52.370;9.748;2023-11-22T13:32:38;4.30;91.60
8888;DHT22;4480;52.370;9.748;2023-11-22T13:35:08;4.30;91.40
8888;DHT22;4480;52.370;9.748;2023-11-22T13:37:40;4.20;91.40
8888;DHT22;4480;52.370;9.748;2023-11-22T13:40:09;4.20;91.60
8888;DHT22;4480;52.370;9.748;2023-11-22T13:42:40;4.20;91.60
8888;DHT22;4480;52.370;9.748;2023-11-22T13:45:08;4.20;91.70
8888;DHT22;4480;52.370;9.748;2023-11-22T13:47:35;4.20;91.50
8888;DHT22;4480;52.370;9.748;2023-11-22T13:50:01;4.20;91.50
8888;DHT22;4480;52.370;9.748;2023-11-22T13:52:30;4.10;90.90
8888;DHT22;4480;52.370;9.748;2023-11-22T13:54:58;4.00;90.90
8888;DHT22;4480;52.370;9.748;2023-11-22T13:57:24;3.90;91.60
8888;DHT22;4480;52.370;9.748;2023-11-22T13:59:51;3.90;92.10
8888;DHT22;4480;52.370;9.748;2023-11-22T14:02:19;3.90;92.30
8888;DHT22;4480;52.370;9.748;2023-11-22T14:04:46;3.90;91.90
8888;DHT22;4480;52.370;9.748;2023-11-22T14:07:13;3.80;91.90
8888;DHT22;4480;52.370;9.748;2023-11-22T14:09:41;3.80;92.20
8888;DHT22;4480;52.370;9.748;2023-11-22T14:12:07;3.70;92.30
8888;DHT22;4480;52.370;9.748;2023-11-22T14:14:34;3.60;92.30
8888;DHT22;4480;52.370;9.748;2023-11-22T14:17:01;3.50;92.90
8888;DHT22;4480;52.370;9.748;2023-11-22T14:19:28;3.60;93.30
8888;DHT22;4480;52.370;9.748;2023-11-22T14:21:54;3.60;93.10
8888;DHT22;4480;52.370;9.748;2023-11-22T14:24:21;3.50;92.40
8888;DHT22;4480;52.370;9.748;2023-11-22T14:26:49;3.40;92.70
8888;DHT22;4480;52.370;9.748;2023-11-22T14:29:16;3.40;93.20
8888;DHT22;4480;52.370;9.748;2023-11-22T14:31:43;3.40;93.30
8888;DHT22;4480;52.370;9.748;2023-11-22T14:34:10;3.30;92.80
8888;DHT22;4480;52.370;9.748;2023-11-22T14:36:37;3.30;92.90
8888;DHT22;4480;52.370;9.748;2023-11-22T14:39:04;3.20;93.00
8888;DHT22;4480;52.370;9.748;2023-11-22T14:41:32;3.20;93.40
8888;DHT22;4480;52.370;9.748;2023-11-22T14:44:01;3.20;93.30
8888;DHT22;4480;52.370;9.748;2023-11-22T14:46:28;3.20;93.20
8888;DHT22;4480;52.370;9.748;2023-11-22T14:48:56;3.20;93.10
8888;DHT22;4480;52.370;9.748;2023-11-22T14:51:23;3.20;93.40
8888;DHT22;4480;52.370;9.748;2023-11-22T14:53:49;3.20;93.70
8888;DHT22;4480;52.370;9.748;2023-11-22T14:56:17;3.20;93.90
8888;DHT22;4480;52.370;9.748;2023-11-22T14:58:44;3.20;94.00
8888;DHT22;4480;52.370;9.748;2023-11-22T15:01:20;3.20;94.10
8888;DHT22;4480;52.370;9.748;2023-11-22T15:03:48;3.30;94.40
8888;DHT22;4480;52.370;9.748;2023-11-22T15:06:15;3.30;94.70
8888;DHT22;4480;52.370;9.748;2023-11-22T15:08:42;3.30;94.80
8888;DHT22;4480;52.370;9.748;2023-11-22T15:11:09;3.40;95.00
8888;DHT22;4480;52.370;9.748;2023-11-22T15:13:36;3.30;95.10
8888;DHT22;4480;52.370;9.748;2023-11-22T15:16:03;3.30;95.10
8888;DHT22;4480;52.370;9.748;2023-11-22T15:18:32;3.30;95.20
8888;DHT22;4480;52.370;9.748;2023-11-22T15:20:58;3.30;95.60
8888;DHT22;4480;52.370;9.748;2023-11-22T15:23:25;3.30;96.00
8888;DHT22;4480;52.370;9.748;2023-11-22T15:25:52;3.30;96.10
8888;DHT22;4480;52.370;9.748;2023-11-22T15:28:19;3.30;96.30
8888;DHT22;4480;52.370;9.748;2023-11-22T15:30:48;3.20;96.30
8888;DHT22;4480;52.370;9.748;2023-11-22T15:33:15;3.20;96.50
8888;DHT22;4480;52.370;9.748;2023-11-22T15:35:43;3.10;96.80
8888;DHT22;4480;52.370;9.748;2023-11-22T15:38:10;3.10;97.10
8888;DHT22;4480;52.370;9.748;2023-11-22T15:40:37;3.10;97.40
8888;DHT22;4480;52.370;9.748;2023-11-22T15:43:04;3.10;97.60
8888;DHT22;4480;52.370;9.748;2023-11-22T15:45:31;3.10;97.80
8888;DHT22;4480;52.370;9.748;2023-11-22T15:47:58;3.10;98.10
8888;DHT22;4480;52.370;9.748;2023-11-22T15:50:25;3.10;98.30
8888;DHT22;4480;52.370;9.748;2023-11-22T15:52:54;3.10;98.50
8888;DHT22;4480;52.370;9.748;2023-11-22T15:55:20;3.10;98.70
8888;DHT22;4480;52.370;9.748;2023-11-22T15:57:47;3.10;99.20
8888;DHT22;4480;52.370;9.748;2023-11-22T16:00:14;3.10;99.00
8888;DHT22;4480;52.370;9.748;2023-11-22T16:02:42;3.10;99.30
8888;DHT22;4480;52.370;9.748;2023-11-22T16:05:08;3.20;99.40
8888;DHT22;4480;52.370;9.748;2023-11-22T16:07:35;3.20;99.70
8888;DHT22;4480;52.370;9.748;2023-11-22T16:10:04;3.20;99.70
8888;DHT22;4480;52.370;9.748;2023-11-22T16:12:33;3.20;99.90
8888;DHT22;4480;52.370;9.748;2023-11-22T16:15:00;3.30;99.90
8888;DHT22;4480;52.370;9.748;2023-11-22T16:17:27;3.30;99.70
8888;DHT22;4480;52.370;9.748;2023-11-22T16:19:53;3.30;99.80
8888;DHT22;4480;52.370;9.748;2023-11-22T16:22:26;3.30;99.90